Data for 07/13/2010

Time Sea-Level Adjusted Pressure Absolute Pressure Temperature Relative Humidity Dew Point   
(mb) (inHg) (mb) (inHg) (C) (F) (%) (C) (F)
00:05 1010 29.83 839 24.78 18.9 66 31 1.5 34.7
00:10 1010 29.83 839 24.78 18.7 65.6 26 -1 30.2
00:15 1010 29.83 839 24.78 18.3 64.9 30 0.3 32.6
00:20 1010 29.83 839 24.78 17.9 64.2 31 0.7 33.3
00:25 1010 29.83 839 24.78 17.8 64 28 -1 30.2
00:30 1010 29.83 840 24.81 18 64.3 25 -2.3 27.8
00:35 1010 29.83 840 24.81 18.4 65 22 -3.5 25.7
00:40 1010 29.83 840 24.81 18.8 65.9 23 -2.7 27.1
00:45 1010 29.83 840 24.81 18.8 65.9 24 -1.9 28.5
00:50 1011 29.85 840 24.81 18.6 65.5 24 -2.3 27.8
00:55 1011 29.85 840 24.81 18.5 65.2 26 -1.2 29.9
01:00 1011 29.85 840 24.81 18.2 64.8 26 -1.5 29.2
01:05 1011 29.85 840 24.81 18.2 64.7 25 -1.9 28.5
01:10 1011 29.85 840 24.81 17.9 64.2 30 0 32
01:15 1011 29.85 840 24.81 17.4 63.2 30 -0.4 31.3
01:20 1011 29.85 840 24.81 17.4 63.3 26 -2.3 27.8
01:25 1011 29.85 840 24.81 17.7 63.8 29 -0.5 31.1
01:30 1011 29.85 840 24.81 17.9 64.1 30 0.4 32.6
01:35 1011 29.85 840 24.81 17.6 63.6 30 0 32
01:40 1011 29.85 840 24.81 16.2 61.2 31 -0.7 30.8
01:45 1011 29.85 840 24.81 15.8 60.5 35 0.6 33
01:50 1011 29.85 840 24.81 15.1 59.2 35 -0.3 31.5
01:55 1011 29.85 840 24.81 15.5 59.9 34 -0.2 31.6
02:00 1011 29.85 840 24.81 15.7 60.2 33 -0.6 30.9
02:05 1011 29.85 840 24.81 15.6 60.1 31 -1.2 29.9
02:10 1011 29.85 840 24.81 16 60.8 33 -0.2 31.6
02:15 1011 29.85 840 24.81 15.9 60.6 32 -0.7 30.8
02:20 1011 29.85 840 24.81 15.8 60.4 32 -0.7 30.7
02:25 1011 29.85 840 24.81 15.4 59.7 34 -0.4 31.3
02:30 1011 29.85 840 24.81 15.1 59.1 35 -0.2 31.6
02:35 1011 29.85 840 24.81 14.8 58.6 35 -0.6 31
02:40 1011 29.85 840 24.81 15 59 34 -0.6 30.9
02:45 1011 29.85 840 24.81 15.1 59.2 33 -1.1 30
02:50 1011 29.85 840 24.81 15 59 36 0.3 32.5
02:55 1011 29.85 841 24.83 14.5 58.1 35 -0.6 30.9
03:00 1011 29.85 841 24.83 14.2 57.6 37 -0.2 31.6
03:05 1011 29.85 841 24.83 14.3 57.7 35 -1 30.3
03:10 1011 29.85 841 24.83 14.7 58.5 32 -1.7 29
03:15 1011 29.85 841 24.83 15.2 59.3 31 -1.7 29
03:20 1011 29.85 841 24.83 15.5 59.9 30 -2 28.5
03:25 1011 29.85 841 24.83 15.6 60 32 -1.2 29.9
03:30 1011 29.85 841 24.83 15.3 59.6 31 -1.4 29.4
03:35 1012 29.88 841 24.83 15.1 59.2 31 -1.8 28.8
03:40 1011 29.85 841 24.83 14.9 58.9 37 0.3 32.6
03:45 1012 29.88 841 24.83 13.7 56.6 40 0.6 33
03:50 1012 29.88 841 24.83 13.2 55.7 40 -0 32
03:55 1012 29.88 841 24.83 13 55.4 39 -0.7 30.7
04:00 1012 29.88 841 24.83 13.1 55.6 41 0.4 32.7
04:05 1012 29.88 841 24.83 12.8 55.1 42 0.4 32.6
04:10 1012 29.88 841 24.83 12.8 55.1 41 0.1 32.2
04:15 1012 29.88 841 24.83 12.8 55 43 0.4 32.7
04:20 1012 29.88 841 24.83 12.3 54.2 44 0.5 32.8
04:25 1012 29.88 841 24.83 12 53.6 45 0.4 32.7
04:30 1012 29.88 841 24.83 12.2 54 43 0 32
04:35 1012 29.88 841 24.83 12.1 53.9 43 -0.1 31.8
04:40 1012 29.88 841 24.83 12.1 53.8 43 0 32.1
04:45 1012 29.88 841 24.83 12 53.5 44 0.1 32.1
04:50 1012 29.88 841 24.83 11.8 53.2 45 0.3 32.5
04:55 1012 29.88 841 24.83 11.4 52.6 47 0.6 33.1
05:00 1012 29.88 841 24.83 11.1 52 51 1.4 34.5
05:05 1012 29.88 841 24.83 10.7 51.3 51 1.1 34
05:10 1012 29.88 841 24.83 10.3 50.5 53 1.1 34
05:15 1012 29.88 841 24.83 10.2 50.3 52 0.9 33.6
05:20 1012 29.88 841 24.83 10.2 50.4 52 0.9 33.5
05:25 1012 29.88 841 24.83 10.3 50.5 51 0.7 33.2
05:30 1012 29.88 841 24.83 10.3 50.5 49 0.2 32.4
05:35 1012 29.88 841 24.83 10.5 50.8 50 0.6 33
05:40 1012 29.88 841 24.83 10.5 50.8 50 0.5 32.8
05:45 1012 29.88 841 24.83 10.4 50.7 51 0.7 33.3
05:50 1012 29.88 841 24.83 10.1 50.2 52 0.8 33.4
05:55 1012 29.88 841 24.83 9.9 49.7 54 1 33.8
06:00 1012 29.88 841 24.83 9.6 49.2 54 0.8 33.4
06:05 1012 29.88 841 24.83 9.7 49.4 52 0.4 32.7
06:10 1012 29.88 841 24.83 9.9 49.8 52 0.7 33.2
06:15 1012 29.88 841 24.83 10.1 50.1 51 0.4 32.7
06:20 1012 29.88 841 24.83 10.4 50.7 51 0.8 33.4
06:25 1012 29.88 841 24.83 10.4 50.8 50 0.4 32.7
06:30 1012 29.88 841 24.83 10.7 51.2 51 1 33.7
06:35 1012 29.88 841 24.83 10.8 51.4 50 0.7 33.3
06:40 1012 29.88 841 24.83 11.1 51.9 46 0 32
06:45 1012 29.88 841 24.83 11.2 52.1 47 0.4 32.8
06:50 1012 29.88 841 24.83 11.3 52.3 47 0.3 32.6
06:55 1012 29.88 841 24.83 11.4 52.4 45 -0 31.9
07:00 1012 29.88 841 24.83 11.6 52.9 42 -0.8 30.5
07:05 1012 29.88 841 24.83 12.1 53.7 40 -1 30.3
07:10 1012 29.88 841 24.83 12.6 54.6 38 -1.4 29.4
07:15 1012 29.88 841 24.83 12.7 54.9 46 1.4 34.5
07:20 1012 29.88 841 24.83 12.8 55 45 1.3 34.3
07:25 1012 29.88 841 24.83 12.8 55 46 1.4 34.6
07:30 1012 29.88 841 24.83 12.8 55.1 43 0.6 33.1
07:35 1012 29.88 841 24.83 13 55.3 42 0.5 33
07:40 1012 29.88 842 24.86 13.2 55.7 46 1.8 35.2
07:45 1012 29.88 842 24.86 13.5 56.3 46 2.1 35.8
07:50 1012 29.88 842 24.86 13.8 56.9 42 1.1 34
07:55 1012 29.88 842 24.86 14.6 58.3 41 1.7 35.1
08:00 1012 29.88 842 24.86 14.7 58.5 39 1.1 34
08:05 1013 29.91 842 24.86 15.4 59.7 38 1.3 34.3
08:10 1013 29.91 842 24.86 15.8 60.5 38 1.7 35.1
08:15 1013 29.91 842 24.86 16.3 61.4 34 0.5 33
08:20 1013 29.91 842 24.86 16.4 61.4 34 0.5 32.8
08:25 1013 29.91 842 24.86 16 60.7 32 -0.6 30.9
08:30 1013 29.91 842 24.86 15.3 59.6 34 -0.3 31.4
08:35 1013 29.91 842 24.86 15.6 60 32 -1.1 30
08:40 1013 29.91 842 24.86 16.2 61.1 31 -0.8 30.6
08:45 1013 29.91 842 24.86 16.7 62 32 -0.2 31.7
08:50 1013 29.91 842 24.86 17 62.7 32 0.2 32.3
08:55 1013 29.91 842 24.86 16.7 62.1 33 0.5 33
09:00 1013 29.91 842 24.86 16.2 61.2 32 -0.6 30.9
09:05 1013 29.91 842 24.86 16.8 62.2 33 0.5 33
09:10 1013 29.91 842 24.86 17 62.5 31 -0.1 31.9
09:15 1013 29.91 842 24.86 17.5 63.5 31 0.4 32.7
09:20 1013 29.91 842 24.86 17.5 63.4 29 -0.5 31
09:25 1013 29.91 842 24.86 17.7 63.9 31 0.3 32.6
09:30 1013 29.91 842 24.86 18.3 65 29 0.2 32.3
09:35 1013 29.91 842 24.86 18 64.4 30 0.3 32.6
09:40 1013 29.91 842 24.86 18.2 64.7 26 -1.7 28.9
09:45 1013 29.91 842 24.86 17.9 64.3 26 -2 28.5
09:50 1013 29.91 842 24.86 17.7 63.9 23 -3.8 25.2
09:55 1013 29.91 842 24.86 17.7 63.8 23 -3.5 25.8
10:00 1013 29.91 842 24.86 17.5 63.5 24 -3.2 26.3
10:05 1013 29.91 842 24.86 18 64.4 24 -2.9 26.9
10:10 1013 29.91 842 24.86 17.9 64.2 23 -3.2 26.3
10:15 1013 29.91 842 24.86 18.2 64.7 24 -2.4 27.7
10:20 1013 29.91 842 24.86 18 64.4 26 -1.8 28.7
10:25 1013 29.91 842 24.86 18 64.3 25 -2.3 27.9
10:30 1013 29.91 842 24.86 18.1 64.6 26 -1.5 29.2
10:35 1013 29.91 842 24.86 18.6 65.4 25 -1.5 29.2
10:40 1013 29.91 842 24.86 19.2 66.5 27 -0.2 31.7
10:45 1013 29.91 842 24.86 19.1 66.3 26 -1 30.3
10:50 1013 29.91 842 24.86 18.8 65.8 25 -1.6 29.1
10:55 1013 29.91 842 24.86 19 66.1 26 -0.9 30.3
11:00 1013 29.91 842 24.86 18.9 65.9 26 -1.1 30.1
11:05 1013 29.91 842 24.86 18.8 65.8 27 -0.7 30.7
11:10 1013 29.91 842 24.86 18.8 65.9 25 -1.2 29.8
11:15 1013 29.91 842 24.86 19.3 66.7 26 -0.3 31.4
11:20 1013 29.91 842 24.86 19.2 66.6 25 -1 30.3
11:25 1013 29.91 842 24.86 19.7 67.4 26 -0.2 31.6
11:30 1013 29.91 842 24.86 19.6 67.2 26 -0.2 31.7
11:35 1013 29.91 842 24.86 18.3 64.9 27 -0.8 30.6
11:40 1013 29.91 842 24.86 18.3 65 27 -0.8 30.6
11:45 1012 29.88 842 24.86 18.2 64.7 28 -0.4 31.3
11:50 1013 29.91 842 24.86 19 66.2 28 0.3 32.5
11:55 1013 29.91 842 24.86 19.3 66.8 26 -0.7 30.8
12:00 1012 29.88 842 24.86 20 67.9 27 0.6 33.1
12:05 1012 29.88 842 24.86 19.4 66.9 27 0 32
12:10 1012 29.88 842 24.86 18.5 65.4 29 0.4 32.7
12:15 1012 29.88 842 24.86 18.5 65.3 26 -1.3 29.7
12:20 1012 29.88 842 24.86 19.9 67.8 26 -0.3 31.5
12:25 1012 29.88 842 24.86 19.3 66.8 27 0.1 32.1
12:30 1012 29.88 842 24.86 18.4 65.2 27 -0.6 30.8
12:35 1012 29.88 842 24.86 19.2 66.5 26 -0.4 31.3
12:40 1012 29.88 842 24.86 20.7 69.3 23 -0.7 30.7
12:45 1012 29.88 841 24.83 20.7 69.2 25 0.1 32.2
12:50 1012 29.88 841 24.83 21 69.8 24 -0.1 31.8
12:55 1012 29.88 841 24.83 21.6 70.9 24 0.4 32.7
13:00 1012 29.88 841 24.83 21.2 70.1 23 -0.5 31.1
13:05 1012 29.88 841 24.83 21.5 70.8 23 -0.3 31.5
13:10 1012 29.88 841 24.83 21.4 70.4 24 -0.1 31.8
13:15 1012 29.88 841 24.83 21.6 71 22 -0.8 30.5
13:20 1012 29.88 841 24.83 22.3 72.2 22 -0.1 31.8
13:25 1012 29.88 841 24.83 22.5 72.4 21 -0.6 30.9
13:30 1012 29.88 841 24.83 22 71.7 22 -0.7 30.8
13:35 1012 29.88 841 24.83 21.9 71.4 22 -0.5 31
13:40 1012 29.88 841 24.83 22 71.5 20 -2.1 28.2
13:45 1012 29.88 841 24.83 21.5 70.7 21 -1.4 29.5
13:50 1012 29.88 841 24.83 21.8 71.3 21 -1.6 29.2
13:55 1012 29.88 841 24.83 21.2 70.1 20 -2.5 27.6
14:00 1012 29.88 841 24.83 21.1 70 21 -2.2 28
14:05 1011 29.85 841 24.83 21.3 70.3 21 -1.8 28.7
14:10 1011 29.85 841 24.83 22.1 71.8 19 -2.3 27.9
14:15 1011 29.85 841 24.83 23.6 74.6 18 -1.8 28.7
14:20 1011 29.85 841 24.83 23.5 74.2 18 -2 28.5
14:25 1011 29.85 841 24.83 23.4 74.2 16 -4 24.7
14:30 1011 29.85 841 24.83 23.5 74.3 15 -4 24.8
14:35 1011 29.85 841 24.83 22.9 73.2 16 -4.3 24.2
14:40 1011 29.85 841 24.83 22.6 72.7 17 -3.8 25.2
14:45 1011 29.85 841 24.83 22.7 72.8 17 -3.2 26.2
14:50 1011 29.85 841 24.83 22.8 73 17 -3.7 25.4
14:55 1011 29.85 841 24.83 22.9 73.1 15 -4.8 23.3
15:00 1011 29.85 841 24.83 22.8 73.1 17 -3.2 26.2
15:05 1011 29.85 841 24.83 23.1 73.5 15 -5.1 22.7
15:10 1011 29.85 841 24.83 22.9 73.2 15 -5.1 22.8
15:15 1011 29.85 841 24.83 22.9 73.1 16 -4.3 24.2
15:20 1011 29.85 841 24.83 22.7 72.9 15 -5.1 22.7
15:25 1011 29.85 841 24.83 23 73.4 14 -5.3 22.5
15:30 1011 29.85 841 24.83 23.3 73.9 14 -5.2 22.7
15:35 1011 29.85 841 24.83 23.2 73.7 14 -5.4 22.4
15:40 1011 29.85 841 24.83 23 73.4 14 -5.6 22
15:45 1011 29.85 841 24.83 22.8 73.1 15 -5.4 22.3
15:50 1011 29.85 841 24.83 22.8 73.1 14 -5.8 21.5
15:55 1012 29.88 841 24.83 22.8 73.1 14 -5.8 21.5
16:00 1012 29.88 841 24.83 23.1 73.5 15 -5.2 22.7
16:05 1012 29.88 841 24.83 22.9 73.2 14 -6.1 21
16:10 1012 29.88 841 24.83 22.5 72.4 14 -6.4 20.4
16:15 1012 29.88 841 24.83 22.6 72.6 14 -5.8 21.6
16:20 1012 29.88 841 24.83 22.9 73.1 14 -6.1 21
16:25 1012 29.88 841 24.83 22.5 72.5 14 -6 21.3
16:30 1012 29.88 841 24.83 22.4 72.3 14 -6.2 20.9
16:35 1012 29.88 841 24.83 22.4 72.3 14 -6.1 21.1
16:40 1012 29.88 841 24.83 22.7 72.8 14 -5.9 21.3
16:45 1012 29.88 841 24.83 22.8 73 14 -5.5 22.1
16:50 1012 29.88 841 24.83 22.7 72.9 15 -4.8 23.4
16:55 1012 29.88 841 24.83 22.8 73 15 -5.1 22.7
17:00 1012 29.88 841 24.83 23 73.4 15 -4.7 23.5
17:05 1012 29.88 841 24.83 22.5 72.6 15 -5 22.9
17:10 1012 29.88 841 24.83 22.6 72.7 14 -5.8 21.5
17:15 1012 29.88 841 24.83 22.3 72.2 14 -5.9 21.5
17:20 1012 29.88 841 24.83 22.4 72.4 15 -5.6 21.9
17:25 1012 29.88 841 24.83 22.3 72.1 15 -5.6 22
17:30 1012 29.88 841 24.83 22.8 73 15 -5.4 22.3
17:35 1012 29.88 841 24.83 23.2 73.8 14 -5.2 22.7
17:40 1012 29.88 841 24.83 22.9 73.1 15 -5.1 22.7
17:45 1012 29.88 841 24.83 22.3 72.2 14 -6.2 20.8
17:50 1012 29.88 841 24.83 21.9 71.5 15 -5.6 21.9
17:55 1012 29.88 841 24.83 22.1 71.9 15 -5.8 21.5
18:00 1012 29.88 841 24.83 22.1 71.8 15 -5.7 21.8
18:05 1012 29.88 841 24.83 21.8 71.3 15 -5.9 21.4
18:10 1012 29.88 841 24.83 22 71.5 15 -6.1 21
18:15 1012 29.88 841 24.83 21.6 70.9 15 -5.7 21.7
18:20 1012 29.88 841 24.83 21.4 70.5 15 -6.4 20.5
18:25 1012 29.88 841 24.83 21.2 70.1 15 -6.1 21.1
18:30 1012 29.88 841 24.83 21.5 70.8 15 -6.1 21
18:35 1012 29.88 841 24.83 21.6 71 14 -6.5 20.2
18:40 1012 29.88 841 24.83 21.5 70.8 15 -6.1 21
18:45 1012 29.88 841 24.83 21.5 70.7 17 -4.6 23.6
18:50 1012 29.88 841 24.83 21.4 70.4 15 -5.9 21.4
18:55 1012 29.88 842 24.86 21.2 70.2 17 -4.7 23.5
19:00 1013 29.91 842 24.86 21.2 70.1 18 -3.9 25
19:05 1012 29.88 842 24.86 20.8 69.5 18 -4.1 24.7
19:10 1013 29.91 842 24.86 20.3 68.6 20 -3.4 25.9
19:15 1013 29.91 842 24.86 19.9 67.7 20 -3.4 25.8
19:20 1013 29.91 842 24.86 19.8 67.6 19 -4.4 24.1
19:25 1013 29.91 842 24.86 19.6 67.2 20 -3.9 24.9
19:30 1013 29.91 842 24.86 19.3 66.7 20 -4 24.7
19:35 1013 29.91 842 24.86 19 66.2 20 -4.1 24.6
19:40 1013 29.91 842 24.86 18.8 65.9 21 -3.8 25.2
19:45 1013 29.91 842 24.86 19.1 66.3 21 -3.8 25.1
19:50 1013 29.91 842 24.86 19.1 66.3 21 -3.8 25.1
19:55 1013 29.91 842 24.86 19 66.2 20 -4.3 24.3
20:00 1013 29.91 842 24.86 19 66.1 20 -4.4 24.1
20:05 1013 29.91 842 24.86 18.8 65.8 21 -4.1 24.7
20:10 1013 29.91 842 24.86 18.7 65.7 23 -2.6 27.3
20:15 1013 29.91 842 24.86 18.6 65.5 23 -2.8 26.9
20:20 1013 29.91 842 24.86 18.4 65.2 24 -2.6 27.3
20:25 1013 29.91 842 24.86 18.1 64.5 26 -1.8 28.8
20:30 1013 29.91 843 24.89 17.8 64 26 -2.1 28.2
20:35 1013 29.91 843 24.89 17.4 63.4 25 -2.7 27.2
20:40 1014 29.94 843 24.89 17.1 62.8 26 -2.2 28
20:45 1014 29.94 843 24.89 16.8 62.2 28 -1.6 29.2
20:50 1014 29.94 843 24.89 16.5 61.6 28 -2.1 28.1
20:55 1014 29.94 843 24.89 16.2 61.2 28 -2.1 28.2
21:00 1014 29.94 843 24.89 16 60.7 29 -2.2 28.1
21:05 1014 29.94 843 24.89 15.7 60.3 29 -2.3 27.9
21:10 1014 29.94 843 24.89 15.5 59.8 29 -2.3 27.9
21:15 1014 29.94 844 24.92 15.2 59.3 30 -2 28.5
21:20 1014 29.94 844 24.92 15.1 59.1 30 -2.2 28
21:25 1015 29.97 844 24.92 14.8 58.7 30 -2.3 27.8
21:30 1015 29.97 844 24.92 14.7 58.4 31 -2.3 27.9
21:35 1015 29.97 844 24.92 14.5 58.2 31 -2.3 27.9
21:40 1015 29.97 844 24.92 14.4 58 32 -2.2 28.1
21:45 1015 29.97 845 24.95 14.3 57.7 32 -2.1 28.1
21:50 1016 30 845 24.95 14.1 57.4 32 -2.2 28
21:55 1016 30 845 24.95 14 57.1 32 -2.3 27.9
22:00 1016 30 845 24.95 13.9 57.1 32 -2.3 27.9
22:05 1016 30 845 24.95 13.8 56.8 33 -2.3 27.9
22:10 1016 30 845 24.95 13.6 56.5 33 -2.2 28
22:15 1016 30 846 24.98 13.5 56.2 33 -2.2 28
22:20 1016 30 846 24.98 13.4 56.2 33 -2.3 27.8
22:25 1017 30.03 846 24.98 13.4 56.2 33 -2.3 27.8
22:30 1017 30.03 846 24.98 13.4 56 33 -2.5 27.6
22:35 1017 30.03 846 24.98 13.3 56 34 -2.2 28
22:40 1017 30.03 846 24.98 13.4 56 33 -2.5 27.6
22:45 1017 30.03 846 24.98 13.4 56.2 32 -2.8 27
22:50 1017 30.03 846 24.98 13.5 56.3 32 -2.9 26.7
22:55 1017 30.03 846 24.98 13.5 56.2 32 -2.8 27
23:00 1017 30.03 846 24.98 13.5 56.3 32 -2.9 26.7
23:05 1017 30.03 846 24.98 13.4 56.2 33 -2.6 27.4
23:10 1017 30.03 847 25.01 13.4 56 33 -2.6 27.4
23:15 1017 30.03 847 25.01 13.3 55.9 33 -2.5 27.4
23:20 1017 30.03 847 25.01 13.2 55.8 33 -2.6 27.4
23:25 1018 30.06 847 25.01 13.2 55.8 33 -2.6 27.4
23:30 1018 30.06 847 25.01 13.2 55.8 35 -1.9 28.6
23:35 1018 30.06 847 25.01 12.9 55.2 38 -0.8 30.5
23:40 1018 30.06 847 25.01 12.5 54.5 39 -1.2 29.9
23:45 1018 30.06 847 25.01 12.3 54.2 42 -0.2 31.6
23:50 1018 30.06 847 25.01 12.1 53.7 43 -0.1 31.8
23:55 1018 30.06 847 25.01 12.1 53.7 42 -0.3 31.5
24:00 1018 30.06 847 25.01 12.1 53.9 41 -0.5 31.1